Time,TemperatureF,DewpointF,PressureIn,WindDirection,WindDirectionDegrees,WindSpeedMPH,WindSpeedGustMPH,Humidity,HourlyPrecipIn,Conditions,Clouds,dailyrainin,SolarRadiationWatts/m^2,SoftwareType,DateUTC
2013-03-12 00:02:00,59.0,31.0,-100.00,ESE,103,0.0,3.0,35,0.00,,,0.00,0.000000,,2013-03-12 07:02:00,
2013-03-12 00:32:00,58.0,30.0,-100.00,East,100,2.0,2.0,34,0.00,,,0.00,0.000000,,2013-03-12 07:32:00,
2013-03-12 00:42:00,58.0,30.0,-100.00,East,100,2.0,2.0,34,0.00,,,0.00,0.000000,,2013-03-12 07:42:00,
2013-03-12 00:52:00,58.0,30.0,-100.00,East,100,2.0,2.0,34,0.00,,,0.00,0.000000,,2013-03-12 07:52:00,
2013-03-12 01:02:00,58.0,30.0,-100.00,East,100,2.0,2.0,34,0.00,,,0.00,0.000000,,2013-03-12 08:02:00,
2013-03-12 01:42:00,58.0,33.0,-100.00,ENE,69,0.0,3.0,38,0.00,,,0.00,0.000000,,2013-03-12 08:42:00,
2013-03-12 01:52:00,58.0,33.0,-100.00,ENE,69,0.0,3.0,38,0.00,,,0.00,0.000000,,2013-03-12 08:52:00,
2013-03-12 02:02:00,58.0,33.0,-100.00,ENE,69,0.0,3.0,38,0.00,,,0.00,0.000000,,2013-03-12 09:02:00,
2013-03-12 02:33:00,56.0,32.0,-100.00,East,92,1.0,2.0,40,0.00,,,0.00,0.000000,,2013-03-12 09:33:00,
2013-03-12 02:42:00,56.0,32.0,-100.00,East,92,1.0,2.0,40,0.00,,,0.00,0.000000,,2013-03-12 09:42:00,
2013-03-12 02:52:00,56.0,32.0,-100.00,East,92,1.0,2.0,40,0.00,,,0.00,0.000000,,2013-03-12 09:52:00,
2013-03-12 03:02:00,56.0,32.0,-100.00,East,92,1.0,2.0,40,0.00,,,0.00,0.000000,,2013-03-12 10:02:00,
2013-03-12 03:33:00,55.0,28.0,-100.00,ENE,78,2.0,3.0,35,0.00,,,0.00,0.000000,,2013-03-12 10:33:00,
2013-03-12 03:42:00,55.0,28.0,-100.00,ENE,78,2.0,3.0,35,0.00,,,0.00,0.000000,,2013-03-12 10:42:00,
2013-03-12 03:52:00,55.0,28.0,-100.00,ENE,78,2.0,3.0,35,0.00,,,0.00,0.000000,,2013-03-12 10:52:00,
2013-03-12 04:02:00,55.0,28.0,-100.00,ENE,78,2.0,3.0,35,0.00,,,0.00,0.000000,,2013-03-12 11:02:00,
2013-03-12 04:32:00,56.0,32.0,-100.00,ESE,111,0.0,4.0,40,0.00,,,0.00,0.000000,,2013-03-12 11:32:00,
2013-03-12 04:42:00,56.0,32.0,-100.00,ESE,111,0.0,4.0,40,0.00,,,0.00,0.000000,,2013-03-12 11:42:00,
2013-03-12 04:52:00,56.0,32.0,-100.00,ESE,111,0.0,4.0,40,0.00,,,0.00,0.000000,,2013-03-12 11:52:00,
2013-03-12 05:02:00,56.0,32.0,-100.00,ESE,111,0.0,4.0,40,0.00,,,0.00,0.000000,,2013-03-12 12:02:00,
2013-03-12 05:32:00,53.0,29.0,-100.00,NE,44,1.0,3.0,40,0.00,,,0.00,0.000000,,2013-03-12 12:32:00,
2013-03-12 05:42:00,53.0,29.0,-100.00,NE,44,1.0,3.0,40,0.00,,,0.00,0.000000,,2013-03-12 12:42:00,
2013-03-12 05:52:00,53.0,29.0,-100.00,NE,44,1.0,3.0,40,0.00,,,0.00,0.000000,,2013-03-12 12:52:00,
2013-03-12 06:02:00,53.0,29.0,-100.00,NE,44,1.0,3.0,40,0.00,,,0.00,0.000000,,2013-03-12 13:02:00,
2013-03-12 06:43:00,52.0,33.0,-100.00,North,10,0.0,3.0,48,0.00,,,0.00,0.000000,,2013-03-12 13:43:00,
2013-03-12 06:52:00,52.0,33.0,-100.00,North,10,0.0,3.0,48,0.00,,,0.00,0.000000,,2013-03-12 13:52:00,
2013-03-12 07:02:00,52.0,33.0,-100.00,North,10,0.0,3.0,48,0.00,,,0.00,0.000000,,2013-03-12 14:02:00,
2013-03-12 07:33:00,50.0,11.0,-100.00,NNW,347,4.0,4.0,20,0.00,,,0.00,0.000000,,2013-03-12 14:33:00,
2013-03-12 08:32:00,59.0,17.0,-100.00,ENE,63,3.0,7.0,19,0.00,,,0.00,3.000000,,2013-03-12 15:32:00,
2013-03-12 09:33:00,62.0,11.0,-100.00,NE,38,4.0,6.0,13,0.00,,,0.00,79.000000,,2013-03-12 16:33:00,
2013-03-12 10:34:00,70.0,11.0,-100.00,North,9,5.0,7.0,10,0.00,,,0.00,248.000000,,2013-03-12 17:34:00,
2013-03-12 11:43:00,79.0,15.0,-100.00,NNW,342,8.0,11.0,9,0.00,,,0.00,616.000000,,2013-03-12 18:43:00,
2013-03-12 11:53:00,79.0,15.0,-100.00,NNW,342,8.0,11.0,9,0.00,,,0.00,616.000000,,2013-03-12 18:53:00,
2013-03-12 12:33:00,80.0,13.0,-100.00,NNE,17,7.0,13.0,8,0.00,,,0.00,759.000000,,2013-03-12 19:33:00,
2013-03-12 13:33:00,84.0,16.0,-100.00,NNE,29,5.0,13.0,8,0.00,,,0.00,932.000000,,2013-03-12 20:33:00,
2013-03-12 13:42:00,84.0,16.0,-100.00,NNE,29,5.0,13.0,8,0.00,,,0.00,932.000000,,2013-03-12 20:42:00,
2013-03-12 13:53:00,84.0,16.0,-100.00,NNE,29,5.0,13.0,8,0.00,,,0.00,932.000000,,2013-03-12 20:53:00,
2013-03-12 14:33:00,87.0,16.0,-100.00,NNW,337,2.0,12.0,7,0.00,,,0.00,1077.000000,,2013-03-12 21:33:00,
2013-03-12 15:33:00,92.0,19.0,-100.00,SSW,200,2.0,11.0,7,0.00,,,0.00,1085.000000,,2013-03-12 22:33:00,
2013-03-12 16:02:00,92.0,19.0,-100.00,SSW,200,2.0,11.0,7,0.00,,,0.00,1085.000000,,2013-03-12 23:02:00,
2013-03-12 16:34:00,92.0,19.0,-100.00,NNW,346,3.0,9.0,7,0.00,,,0.00,975.000000,,2013-03-12 23:34:00,
2013-03-12 16:43:00,92.0,19.0,-100.00,NNW,346,3.0,9.0,7,0.00,,,0.00,975.000000,,2013-03-12 23:43:00,
2013-03-12 16:52:00,92.0,19.0,-100.00,NNW,346,3.0,9.0,7,0.00,,,0.00,975.000000,,2013-03-12 23:52:00,
2013-03-12 17:02:00,92.0,19.0,-100.00,NNW,346,3.0,9.0,7,0.00,,,0.00,975.000000,,2013-03-13 00:02:00,
2013-03-12 17:33:00,91.0,15.0,-100.00,North,1,3.0,10.0,6,0.00,,,0.00,789.000000,,2013-03-13 00:33:00,
2013-03-12 18:33:00,89.0,17.0,-100.00,WNW,296,1.0,9.0,7,0.00,,,0.00,545.000000,,2013-03-13 01:33:00,
2013-03-12 19:33:00,87.0,26.0,-100.00,WNW,291,3.0,4.0,11,0.00,,,0.00,269.000000,,2013-03-13 02:33:00,
2013-03-12 19:43:00,87.0,26.0,-100.00,WNW,291,3.0,4.0,11,0.00,,,0.00,269.000000,,2013-03-13 02:43:00,
2013-03-12 19:52:00,87.0,26.0,-100.00,WNW,291,3.0,4.0,11,0.00,,,0.00,269.000000,,2013-03-13 02:52:00,
2013-03-12 20:32:00,80.0,33.0,-100.00,WNW,290,0.0,6.0,18,-99.99,,,0.00,28.000000,,2013-03-13 03:32:00,
2013-03-12 20:42:00,80.0,33.0,-100.00,WNW,290,0.0,6.0,18,-99.99,,,0.00,28.000000,,2013-03-13 03:42:00,
2013-03-12 20:52:00,80.0,33.0,-100.00,WNW,290,0.0,6.0,18,-99.99,,,0.00,28.000000,,2013-03-13 03:52:00,
2013-03-12 21:02:00,80.0,33.0,-100.00,WNW,290,0.0,6.0,18,-99.99,,,0.00,28.000000,,2013-03-13 04:02:00,
2013-03-12 21:32:00,71.0,23.0,-100.00,North,1,2.0,5.0,16,0.00,,,0.00,0.000000,,2013-03-13 04:32:00,
2013-03-12 22:32:00,72.0,32.0,-100.00,ENE,68,1.0,9.0,23,0.00,,,0.00,0.000000,,2013-03-13 05:32:00,
2013-03-12 22:42:00,72.0,32.0,-100.00,ENE,68,1.0,9.0,23,0.00,,,0.00,0.000000,,2013-03-13 05:42:00,
2013-03-12 22:52:00,72.0,32.0,-100.00,ENE,68,1.0,9.0,23,0.00,,,0.00,0.000000,,2013-03-13 05:52:00,
2013-03-12 23:02:00,72.0,32.0,-100.00,ENE,68,1.0,9.0,23,0.00,,,0.00,0.000000,,2013-03-13 06:02:00,
2013-03-12 23:33:00,67.0,30.0,-100.00,ENE,77,0.0,6.0,25,0.00,,,0.00,0.000000,,2013-03-13 06:33:00,
2013-03-12 23:42:00,67.0,30.0,-100.00,ENE,77,0.0,6.0,25,0.00,,,0.00,0.000000,,2013-03-13 06:42:00,
2013-03-12 23:52:00,67.0,30.0,-100.00,ENE,77,0.0,6.0,25,0.00,,,0.00,0.000000,,2013-03-13 06:52:00,